Terminal Aerodrome Forecast
Issued by NWS

Home | Current Version | Previous Version | Text Only | Print | Product List | Glossary On
Versions: 1 2 3 4 5 6 7 8 9 10 11 12 13 14 15 16 17 18 19 20 21 22 23 24 25 26 27 28 29 30 31 32 33 34 35 36 37 38 39 40 41 42 43 44 45 46 47
000
FTUS41 KGYX 230520
TAFMHT
TAF
KMHT 230520Z 2306/2406 00000KT 5SM BR SCT004 BKN030
      TEMPO 2306/2310 2SM -RA BR BKN004 OVC030
     FM231100 06004KT 2SM -RA BR OVC006
     FM231500 06005KT 3/4SM -RA BR OVC004=

USA.gov is the U.S. government's official web portal to all federal, state and local government web resources and services.